SLEK weather

Public forecast

Using degrees Celsius for public forecast. Weather courtesy of forecast.io.

Closest aviation weather report (METAR) to El Condor Airport

Report is more than 6 hours old.

Closest report is Yacuiba Airport, 19.0 nm (35.2 km) SW. Retrieved 2020/08/06 18:00 UTC (5 days ago):

SLYA 061800Z 00000KT 9999 NSC 32/18 Q1014

Closest aviation forecast (TAF) to El Condor Airport

Forecast is more than 12 hours old.

Closest forecast is Yacuiba Airport, 19.0 nm (35.2 km) SW. Retrieved 2020/08/09 12:45 UTC (2 days ago):

TAF SLYA 091000Z 0912/1012 00000KT 9999 NSC TX30/0919Z TN10/1011Z BECMG 0914/0916 04010KT BECMG 0923/1001 00000KT